sensor_id;sensor_type;location;lat;lon;timestamp;P1;durP1;ratioP1;P2;durP2;ratioP2
66727;SDS011;53641;44.274;19.890;2023-10-08T00:00:27;8.38;;;2.00;;
66727;SDS011;53641;44.274;19.890;2023-10-08T00:03:13;4.43;;;1.63;;
66727;SDS011;53641;44.274;19.890;2023-10-08T00:05:39;4.07;;;1.95;;
66727;SDS011;53641;44.274;19.890;2023-10-08T00:08:06;3.83;;;1.77;;
66727;SDS011;53641;44.274;19.890;2023-10-08T00:10:39;5.60;;;1.83;;
66727;SDS011;53641;44.274;19.890;2023-10-08T00:13:10;5.07;;;2.07;;
66727;SDS011;53641;44.274;19.890;2023-10-08T00:15:38;4.50;;;1.58;;
66727;SDS011;53641;44.274;19.890;2023-10-08T00:18:14;6.15;;;1.95;;
66727;SDS011;53641;44.274;19.890;2023-10-08T00:20:40;4.68;;;2.08;;
66727;SDS011;53641;44.274;19.890;2023-10-08T00:23:26;4.57;;;2.05;;
66727;SDS011;53641;44.274;19.890;2023-10-08T00:25:53;4.35;;;1.70;;
66727;SDS011;53641;44.274;19.890;2023-10-08T00:28:19;3.38;;;1.55;;
66727;SDS011;53641;44.274;19.890;2023-10-08T00:30:46;4.05;;;1.90;;
66727;SDS011;53641;44.274;19.890;2023-10-08T00:33:13;4.40;;;1.85;;
66727;SDS011;53641;44.274;19.890;2023-10-08T00:35:39;12.38;;;2.55;;
66727;SDS011;53641;44.274;19.890;2023-10-08T00:38:07;4.25;;;2.30;;
66727;SDS011;53641;44.274;19.890;2023-10-08T00:40:40;7.60;;;2.50;;
66727;SDS011;53641;44.274;19.890;2023-10-08T00:43:07;8.63;;;2.60;;
66727;SDS011;53641;44.274;19.890;2023-10-08T00:45:38;11.95;;;2.60;;
66727;SDS011;53641;44.274;19.890;2023-10-08T00:48:11;6.20;;;2.00;;
66727;SDS011;53641;44.274;19.890;2023-10-08T00:50:42;4.45;;;2.35;;
66727;SDS011;53641;44.274;19.890;2023-10-08T00:53:11;6.38;;;2.45;;
66727;SDS011;53641;44.274;19.890;2023-10-08T00:55:49;4.32;;;1.85;;
66727;SDS011;53641;44.274;19.890;2023-10-08T01:00:59;6.22;;;1.92;;
66727;SDS011;53641;44.274;19.890;2023-10-08T01:03:28;3.72;;;1.48;;
66727;SDS011;53641;44.274;19.890;2023-10-08T01:05:54;4.03;;;1.63;;
66727;SDS011;53641;44.274;19.890;2023-10-08T01:08:22;3.90;;;1.83;;
66727;SDS011;53641;44.274;19.890;2023-10-08T01:11:17;7.55;;;2.10;;
66727;SDS011;53641;44.274;19.890;2023-10-08T01:14:08;2.60;;;1.27;;
66727;SDS011;53641;44.274;19.890;2023-10-08T01:16:35;3.53;;;1.67;;
66727;SDS011;53641;44.274;19.890;2023-10-08T01:19:01;4.78;;;2.00;;
66727;SDS011;53641;44.274;19.890;2023-10-08T01:21:30;9.40;;;2.20;;
66727;SDS011;53641;44.274;19.890;2023-10-08T01:24:00;4.10;;;1.23;;
66727;SDS011;53641;44.274;19.890;2023-10-08T01:26:27;4.93;;;1.92;;
66727;SDS011;53641;44.274;19.890;2023-10-08T01:28:56;5.88;;;2.00;;
66727;SDS011;53641;44.274;19.890;2023-10-08T01:31:22;3.08;;;1.48;;
66727;SDS011;53641;44.274;19.890;2023-10-08T01:33:48;5.65;;;2.28;;
66727;SDS011;53641;44.274;19.890;2023-10-08T01:36:21;5.60;;;1.98;;
66727;SDS011;53641;44.274;19.890;2023-10-08T01:38:48;3.40;;;1.25;;
66727;SDS011;53641;44.274;19.890;2023-10-08T01:41:14;4.95;;;1.88;;
66727;SDS011;53641;44.274;19.890;2023-10-08T01:43:44;3.80;;;1.48;;
66727;SDS011;53641;44.274;19.890;2023-10-08T01:46:10;3.78;;;1.73;;
66727;SDS011;53641;44.274;19.890;2023-10-08T01:48:37;4.85;;;1.88;;
66727;SDS011;53641;44.274;19.890;2023-10-08T01:51:04;5.47;;;1.58;;
66727;SDS011;53641;44.274;19.890;2023-10-08T01:53:36;2.95;;;1.42;;
66727;SDS011;53641;44.274;19.890;2023-10-08T01:56:03;5.47;;;2.30;;
66727;SDS011;53641;44.274;19.890;2023-10-08T01:58:29;7.47;;;2.42;;
66727;SDS011;53641;44.274;19.890;2023-10-08T02:00:55;7.97;;;2.58;;
66727;SDS011;53641;44.274;19.890;2023-10-08T02:03:25;3.72;;;1.50;;
66727;SDS011;53641;44.274;19.890;2023-10-08T02:05:52;4.65;;;1.73;;
66727;SDS011;53641;44.274;19.890;2023-10-08T02:08:19;4.65;;;2.03;;
66727;SDS011;53641;44.274;19.890;2023-10-08T02:10:46;6.43;;;1.80;;
66727;SDS011;53641;44.274;19.890;2023-10-08T02:13:14;4.82;;;1.58;;
66727;SDS011;53641;44.274;19.890;2023-10-08T02:15:43;4.80;;;1.70;;
66727;SDS011;53641;44.274;19.890;2023-10-08T02:18:09;3.35;;;1.65;;
66727;SDS011;53641;44.274;19.890;2023-10-08T02:20:36;3.58;;;1.50;;
66727;SDS011;53641;44.274;19.890;2023-10-08T02:23:01;4.38;;;1.98;;
66727;SDS011;53641;44.274;19.890;2023-10-08T02:25:30;4.85;;;1.65;;
66727;SDS011;53641;44.274;19.890;2023-10-08T02:27:56;3.42;;;1.55;;
66727;SDS011;53641;44.274;19.890;2023-10-08T02:30:22;5.70;;;1.75;;
66727;SDS011;53641;44.274;19.890;2023-10-08T02:32:48;6.75;;;1.92;;
66727;SDS011;53641;44.274;19.890;2023-10-08T02:35:14;5.63;;;1.38;;
66727;SDS011;53641;44.274;19.890;2023-10-08T02:37:40;4.45;;;1.80;;
66727;SDS011;53641;44.274;19.890;2023-10-08T02:40:07;4.55;;;1.90;;
66727;SDS011;53641;44.274;19.890;2023-10-08T02:42:52;4.30;;;1.55;;
66727;SDS011;53641;44.274;19.890;2023-10-08T02:45:26;4.30;;;1.33;;
66727;SDS011;53641;44.274;19.890;2023-10-08T02:47:53;3.50;;;1.52;;
66727;SDS011;53641;44.274;19.890;2023-10-08T02:50:20;6.13;;;1.25;;
66727;SDS011;53641;44.274;19.890;2023-10-08T02:52:47;4.40;;;1.42;;
66727;SDS011;53641;44.274;19.890;2023-10-08T02:55:17;3.78;;;1.20;;
66727;SDS011;53641;44.274;19.890;2023-10-08T02:57:53;4.68;;;1.40;;
66727;SDS011;53641;44.274;19.890;2023-10-08T03:00:19;2.90;;;1.23;;
66727;SDS011;53641;44.274;19.890;2023-10-08T03:02:45;4.07;;;1.60;;
66727;SDS011;53641;44.274;19.890;2023-10-08T03:05:11;2.60;;;1.20;;
66727;SDS011;53641;44.274;19.890;2023-10-08T03:07:41;5.82;;;2.03;;
66727;SDS011;53641;44.274;19.890;2023-10-08T03:10:07;4.43;;;1.58;;
66727;SDS011;53641;44.274;19.890;2023-10-08T03:12:43;3.75;;;0.98;;
66727;SDS011;53641;44.274;19.890;2023-10-08T03:15:11;3.72;;;1.40;;
66727;SDS011;53641;44.274;19.890;2023-10-08T03:17:40;6.07;;;1.60;;
66727;SDS011;53641;44.274;19.890;2023-10-08T03:20:16;4.82;;;1.30;;
66727;SDS011;53641;44.274;19.890;2023-10-08T03:23:03;3.45;;;1.48;;
66727;SDS011;53641;44.274;19.890;2023-10-08T03:25:32;2.58;;;1.20;;
66727;SDS011;53641;44.274;19.890;2023-10-08T03:28:06;2.83;;;1.27;;
66727;SDS011;53641;44.274;19.890;2023-10-08T03:30:34;2.80;;;1.60;;
66727;SDS011;53641;44.274;19.890;2023-10-08T03:33:14;3.58;;;1.83;;
66727;SDS011;53641;44.274;19.890;2023-10-08T03:35:48;3.28;;;1.33;;
66727;SDS011;53641;44.274;19.890;2023-10-08T03:38:17;3.72;;;1.70;;
66727;SDS011;53641;44.274;19.890;2023-10-08T03:40:53;4.13;;;1.45;;
66727;SDS011;53641;44.274;19.890;2023-10-08T03:43:23;3.83;;;1.25;;
66727;SDS011;53641;44.274;19.890;2023-10-08T03:46:00;2.20;;;1.20;;
66727;SDS011;53641;44.274;19.890;2023-10-08T03:51:01;3.88;;;1.38;;
66727;SDS011;53641;44.274;19.890;2023-10-08T03:53:32;3.33;;;1.23;;
66727;SDS011;53641;44.274;19.890;2023-10-08T03:56:07;3.45;;;1.40;;
66727;SDS011;53641;44.274;19.890;2023-10-08T03:58:33;5.40;;;1.67;;
66727;SDS011;53641;44.274;19.890;2023-10-08T04:01:06;5.65;;;1.85;;
66727;SDS011;53641;44.274;19.890;2023-10-08T04:03:36;4.65;;;1.52;;
66727;SDS011;53641;44.274;19.890;2023-10-08T04:06:23;5.43;;;1.63;;
66727;SDS011;53641;44.274;19.890;2023-10-08T04:08:56;4.72;;;1.45;;
66727;SDS011;53641;44.274;19.890;2023-10-08T04:11:41;3.92;;;1.25;;
66727;SDS011;53641;44.274;19.890;2023-10-08T04:14:20;3.45;;;1.52;;
66727;SDS011;53641;44.274;19.890;2023-10-08T04:16:50;4.03;;;1.58;;
66727;SDS011;53641;44.274;19.890;2023-10-08T04:19:19;3.28;;;1.25;;
66727;SDS011;53641;44.274;19.890;2023-10-08T04:21:47;6.47;;;1.48;;
66727;SDS011;53641;44.274;19.890;2023-10-08T04:24:20;2.90;;;1.33;;
66727;SDS011;53641;44.274;19.890;2023-10-08T04:26:53;2.88;;;1.20;;
66727;SDS011;53641;44.274;19.890;2023-10-08T04:29:22;4.80;;;1.75;;
66727;SDS011;53641;44.274;19.890;2023-10-08T04:31:49;8.93;;;1.83;;
66727;SDS011;53641;44.274;19.890;2023-10-08T04:34:25;3.65;;;1.45;;
66727;SDS011;53641;44.274;19.890;2023-10-08T04:36:53;3.40;;;1.40;;
66727;SDS011;53641;44.274;19.890;2023-10-08T04:39:20;4.45;;;1.65;;
66727;SDS011;53641;44.274;19.890;2023-10-08T04:41:48;4.15;;;1.58;;
66727;SDS011;53641;44.274;19.890;2023-10-08T04:44:19;4.63;;;1.67;;
66727;SDS011;53641;44.274;19.890;2023-10-08T04:46:47;3.15;;;1.45;;
66727;SDS011;53641;44.274;19.890;2023-10-08T04:49:15;3.45;;;1.30;;
66727;SDS011;53641;44.274;19.890;2023-10-08T04:51:58;5.25;;;1.65;;
66727;SDS011;53641;44.274;19.890;2023-10-08T04:54:25;4.95;;;1.70;;
66727;SDS011;53641;44.274;19.890;2023-10-08T04:57:01;3.97;;;1.35;;
66727;SDS011;53641;44.274;19.890;2023-10-08T04:59:29;3.15;;;1.42;;
66727;SDS011;53641;44.274;19.890;2023-10-08T05:02:00;3.92;;;1.52;;
66727;SDS011;53641;44.274;19.890;2023-10-08T05:04:43;4.00;;;1.67;;
66727;SDS011;53641;44.274;19.890;2023-10-08T05:07:29;3.05;;;1.27;;
66727;SDS011;53641;44.274;19.890;2023-10-08T05:10:15;4.05;;;1.30;;
66727;SDS011;53641;44.274;19.890;2023-10-08T05:13:01;3.20;;;1.27;;
66727;SDS011;53641;44.274;19.890;2023-10-08T05:15:46;4.88;;;1.38;;
66727;SDS011;53641;44.274;19.890;2023-10-08T05:18:31;6.53;;;1.67;;
66727;SDS011;53641;44.274;19.890;2023-10-08T05:21:16;3.20;;;1.30;;
66727;SDS011;53641;44.274;19.890;2023-10-08T05:23:59;3.33;;;1.67;;
66727;SDS011;53641;44.274;19.890;2023-10-08T05:26:40;5.68;;;1.98;;
66727;SDS011;53641;44.274;19.890;2023-10-08T05:29:09;3.50;;;1.25;;
66727;SDS011;53641;44.274;19.890;2023-10-08T05:31:55;4.88;;;1.65;;
66727;SDS011;53641;44.274;19.890;2023-10-08T05:34:40;4.40;;;1.58;;
66727;SDS011;53641;44.274;19.890;2023-10-08T05:37:21;5.20;;;2.10;;
66727;SDS011;53641;44.274;19.890;2023-10-08T05:39:57;3.83;;;1.95;;
66727;SDS011;53641;44.274;19.890;2023-10-08T05:42:36;3.25;;;1.67;;
66727;SDS011;53641;44.274;19.890;2023-10-08T05:45:11;3.72;;;1.95;;
66727;SDS011;53641;44.274;19.890;2023-10-08T05:47:39;4.68;;;1.88;;
66727;SDS011;53641;44.274;19.890;2023-10-08T05:50:16;5.88;;;2.10;;
66727;SDS011;53641;44.274;19.890;2023-10-08T05:53:02;4.30;;;2.15;;
66727;SDS011;53641;44.274;19.890;2023-10-08T05:55:40;3.58;;;2.05;;
66727;SDS011;53641;44.274;19.890;2023-10-08T05:58:12;4.78;;;2.58;;
66727;SDS011;53641;44.274;19.890;2023-10-08T06:00:42;5.32;;;2.13;;
66727;SDS011;53641;44.274;19.890;2023-10-08T06:03:37;4.65;;;1.90;;
66727;SDS011;53641;44.274;19.890;2023-10-08T06:06:23;5.25;;;2.50;;
66727;SDS011;53641;44.274;19.890;2023-10-08T06:09:01;4.63;;;2.13;;
66727;SDS011;53641;44.274;19.890;2023-10-08T06:11:48;5.13;;;2.40;;
66727;SDS011;53641;44.274;19.890;2023-10-08T06:14:34;10.30;;;2.80;;
66727;SDS011;53641;44.274;19.890;2023-10-08T06:17:19;6.22;;;3.08;;
66727;SDS011;53641;44.274;19.890;2023-10-08T06:20:08;8.13;;;3.30;;
66727;SDS011;53641;44.274;19.890;2023-10-08T06:22:35;6.53;;;3.40;;
66727;SDS011;53641;44.274;19.890;2023-10-08T06:25:01;8.60;;;3.22;;
66727;SDS011;53641;44.274;19.890;2023-10-08T06:27:41;6.80;;;3.07;;
66727;SDS011;53641;44.274;19.890;2023-10-08T06:30:10;7.18;;;3.30;;
66727;SDS011;53641;44.274;19.890;2023-10-08T06:32:41;8.63;;;3.22;;
66727;SDS011;53641;44.274;19.890;2023-10-08T06:35:09;7.80;;;3.30;;
66727;SDS011;53641;44.274;19.890;2023-10-08T06:37:42;10.48;;;3.00;;
66727;SDS011;53641;44.274;19.890;2023-10-08T06:40:08;10.23;;;3.25;;
66727;SDS011;53641;44.274;19.890;2023-10-08T06:42:54;6.18;;;2.60;;
66727;SDS011;53641;44.274;19.890;2023-10-08T06:45:22;8.15;;;2.80;;
66727;SDS011;53641;44.274;19.890;2023-10-08T06:47:48;6.55;;;2.65;;
66727;SDS011;53641;44.274;19.890;2023-10-08T06:50:15;6.05;;;2.58;;
66727;SDS011;53641;44.274;19.890;2023-10-08T06:52:42;6.70;;;3.40;;
66727;SDS011;53641;44.274;19.890;2023-10-08T06:55:08;7.97;;;2.53;;
66727;SDS011;53641;44.274;19.890;2023-10-08T06:57:38;8.48;;;2.45;;
66727;SDS011;53641;44.274;19.890;2023-10-08T07:00:04;4.85;;;2.15;;
66727;SDS011;53641;44.274;19.890;2023-10-08T07:02:50;5.93;;;2.55;;
66727;SDS011;53641;44.274;19.890;2023-10-08T07:05:16;7.53;;;2.97;;
66727;SDS011;53641;44.274;19.890;2023-10-08T07:07:43;5.68;;;2.40;;
66727;SDS011;53641;44.274;19.890;2023-10-08T07:10:09;10.20;;;2.42;;
66727;SDS011;53641;44.274;19.890;2023-10-08T07:12:35;5.78;;;2.70;;
66727;SDS011;53641;44.274;19.890;2023-10-08T07:15:01;5.55;;;2.40;;
66727;SDS011;53641;44.274;19.890;2023-10-08T07:17:30;4.88;;;2.40;;
66727;SDS011;53641;44.274;19.890;2023-10-08T07:20:05;6.32;;;2.60;;
66727;SDS011;53641;44.274;19.890;2023-10-08T07:22:38;5.90;;;2.47;;
66727;SDS011;53641;44.274;19.890;2023-10-08T07:25:08;4.75;;;2.80;;
66727;SDS011;53641;44.274;19.890;2023-10-08T07:27:34;7.75;;;2.20;;
66727;SDS011;53641;44.274;19.890;2023-10-08T07:30:03;7.57;;;2.65;;
66727;SDS011;53641;44.274;19.890;2023-10-08T07:32:35;10.88;;;3.15;;
66727;SDS011;53641;44.274;19.890;2023-10-08T07:35:05;6.32;;;2.95;;
66727;SDS011;53641;44.274;19.890;2023-10-08T07:37:48;13.30;;;3.00;;
66727;SDS011;53641;44.274;19.890;2023-10-08T07:40:14;4.63;;;2.50;;
66727;SDS011;53641;44.274;19.890;2023-10-08T07:42:40;6.20;;;2.83;;
66727;SDS011;53641;44.274;19.890;2023-10-08T07:45:06;7.10;;;3.00;;
66727;SDS011;53641;44.274;19.890;2023-10-08T07:47:32;5.45;;;2.92;;
66727;SDS011;53641;44.274;19.890;2023-10-08T07:49:58;5.88;;;2.92;;
66727;SDS011;53641;44.274;19.890;2023-10-08T07:52:24;8.10;;;3.03;;
66727;SDS011;53641;44.274;19.890;2023-10-08T07:54:50;8.55;;;3.30;;
66727;SDS011;53641;44.274;19.890;2023-10-08T07:57:16;6.50;;;3.10;;
66727;SDS011;53641;44.274;19.890;2023-10-08T07:59:51;5.70;;;2.92;;
66727;SDS011;53641;44.274;19.890;2023-10-08T08:02:20;7.28;;;2.60;;
66727;SDS011;53641;44.274;19.890;2023-10-08T08:04:51;6.28;;;3.15;;
66727;SDS011;53641;44.274;19.890;2023-10-08T08:07:18;6.35;;;2.45;;
66727;SDS011;53641;44.274;19.890;2023-10-08T08:09:45;5.18;;;2.67;;
66727;SDS011;53641;44.274;19.890;2023-10-08T08:12:23;10.18;;;3.20;;
66727;SDS011;53641;44.274;19.890;2023-10-08T08:14:51;7.38;;;3.40;;
66727;SDS011;53641;44.274;19.890;2023-10-08T08:17:17;7.47;;;2.90;;
66727;SDS011;53641;44.274;19.890;2023-10-08T08:19:44;5.90;;;3.20;;
66727;SDS011;53641;44.274;19.890;2023-10-08T08:22:12;6.43;;;3.33;;
66727;SDS011;53641;44.274;19.890;2023-10-08T08:24:45;7.90;;;3.28;;
66727;SDS011;53641;44.274;19.890;2023-10-08T08:27:12;6.75;;;3.05;;
66727;SDS011;53641;44.274;19.890;2023-10-08T08:29:50;6.70;;;2.90;;
66727;SDS011;53641;44.274;19.890;2023-10-08T08:32:20;6.40;;;2.38;;
66727;SDS011;53641;44.274;19.890;2023-10-08T08:34:47;6.22;;;2.67;;
66727;SDS011;53641;44.274;19.890;2023-10-08T08:37:16;7.75;;;2.67;;
66727;SDS011;53641;44.274;19.890;2023-10-08T08:39:42;3.95;;;1.63;;
66727;SDS011;53641;44.274;19.890;2023-10-08T08:42:08;4.55;;;2.25;;
66727;SDS011;53641;44.274;19.890;2023-10-08T08:44:36;3.53;;;1.70;;
66727;SDS011;53641;44.274;19.890;2023-10-08T08:47:13;3.72;;;1.90;;
66727;SDS011;53641;44.274;19.890;2023-10-08T08:49:49;4.93;;;1.77;;
66727;SDS011;53641;44.274;19.890;2023-10-08T08:52:18;3.85;;;1.33;;
66727;SDS011;53641;44.274;19.890;2023-10-08T08:54:44;5.00;;;1.55;;
66727;SDS011;53641;44.274;19.890;2023-10-08T08:57:10;6.07;;;2.25;;
66727;SDS011;53641;44.274;19.890;2023-10-08T08:59:52;5.07;;;1.95;;
66727;SDS011;53641;44.274;19.890;2023-10-08T09:02:19;5.32;;;2.13;;
66727;SDS011;53641;44.274;19.890;2023-10-08T09:04:47;4.85;;;1.50;;
66727;SDS011;53641;44.274;19.890;2023-10-08T09:07:14;5.30;;;2.00;;
66727;SDS011;53641;44.274;19.890;2023-10-08T09:09:40;5.30;;;2.50;;
66727;SDS011;53641;44.274;19.890;2023-10-08T09:12:06;4.65;;;2.28;;
66727;SDS011;53641;44.274;19.890;2023-10-08T09:14:35;5.07;;;2.20;;
66727;SDS011;53641;44.274;19.890;2023-10-08T09:17:03;3.70;;;1.65;;
66727;SDS011;53641;44.274;19.890;2023-10-08T09:19:30;3.13;;;1.30;;
66727;SDS011;53641;44.274;19.890;2023-10-08T09:22:05;4.45;;;1.58;;
66727;SDS011;53641;44.274;19.890;2023-10-08T09:24:33;4.65;;;1.70;;
66727;SDS011;53641;44.274;19.890;2023-10-08T09:27:02;4.78;;;1.50;;
66727;SDS011;53641;44.274;19.890;2023-10-08T09:29:28;6.07;;;1.83;;
66727;SDS011;53641;44.274;19.890;2023-10-08T09:31:56;3.97;;;1.58;;
66727;SDS011;53641;44.274;19.890;2023-10-08T09:34:26;5.47;;;1.90;;
66727;SDS011;53641;44.274;19.890;2023-10-08T09:36:53;6.72;;;1.90;;
66727;SDS011;53641;44.274;19.890;2023-10-08T09:39:21;7.00;;;2.22;;
66727;SDS011;53641;44.274;19.890;2023-10-08T09:41:53;3.25;;;1.48;;
66727;SDS011;53641;44.274;19.890;2023-10-08T09:44:23;3.10;;;1.50;;
66727;SDS011;53641;44.274;19.890;2023-10-08T09:46:53;5.07;;;1.70;;
66727;SDS011;53641;44.274;19.890;2023-10-08T09:49:25;6.50;;;1.73;;
66727;SDS011;53641;44.274;19.890;2023-10-08T09:51:58;3.47;;;1.30;;
66727;SDS011;53641;44.274;19.890;2023-10-08T09:54:29;3.92;;;1.40;;
66727;SDS011;53641;44.274;19.890;2023-10-08T09:56:59;6.60;;;1.90;;
66727;SDS011;53641;44.274;19.890;2023-10-08T09:59:28;3.33;;;1.50;;
66727;SDS011;53641;44.274;19.890;2023-10-08T10:01:54;3.22;;;1.38;;
66727;SDS011;53641;44.274;19.890;2023-10-08T10:04:24;4.25;;;1.48;;
66727;SDS011;53641;44.274;19.890;2023-10-08T10:06:53;3.65;;;1.27;;
66727;SDS011;53641;44.274;19.890;2023-10-08T10:09:20;4.20;;;1.35;;
66727;SDS011;53641;44.274;19.890;2023-10-08T10:11:48;5.05;;;1.50;;
66727;SDS011;53641;44.274;19.890;2023-10-08T10:14:15;4.45;;;1.38;;
66727;SDS011;53641;44.274;19.890;2023-10-08T10:16:42;3.42;;;1.27;;
66727;SDS011;53641;44.274;19.890;2023-10-08T10:21:45;7.45;;;1.27;;
66727;SDS011;53641;44.274;19.890;2023-10-08T10:24:22;4.32;;;1.33;;
66727;SDS011;53641;44.274;19.890;2023-10-08T10:27:06;2.78;;;1.20;;
66727;SDS011;53641;44.274;19.890;2023-10-08T10:29:35;4.35;;;1.42;;
66727;SDS011;53641;44.274;19.890;2023-10-08T10:32:01;4.32;;;1.40;;
66727;SDS011;53641;44.274;19.890;2023-10-08T10:34:30;4.47;;;1.90;;
66727;SDS011;53641;44.274;19.890;2023-10-08T10:36:59;5.28;;;2.17;;
66727;SDS011;53641;44.274;19.890;2023-10-08T10:39:52;3.15;;;1.77;;
66727;SDS011;53641;44.274;19.890;2023-10-08T10:42:20;3.70;;;1.50;;
66727;SDS011;53641;44.274;19.890;2023-10-08T10:44:47;4.97;;;1.25;;
66727;SDS011;53641;44.274;19.890;2023-10-08T10:47:18;7.53;;;1.70;;
66727;SDS011;53641;44.274;19.890;2023-10-08T10:49:55;3.80;;;1.35;;
66727;SDS011;53641;44.274;19.890;2023-10-08T10:52:40;3.05;;;1.52;;
66727;SDS011;53641;44.274;19.890;2023-10-08T10:55:10;5.72;;;2.00;;
66727;SDS011;53641;44.274;19.890;2023-10-08T10:57:56;5.72;;;1.70;;
66727;SDS011;53641;44.274;19.890;2023-10-08T11:00:29;4.03;;;1.65;;
66727;SDS011;53641;44.274;19.890;2023-10-08T11:03:28;5.00;;;1.98;;
66727;SDS011;53641;44.274;19.890;2023-10-08T11:05:59;4.63;;;1.48;;
66727;SDS011;53641;44.274;19.890;2023-10-08T11:08:31;5.80;;;2.08;;
66727;SDS011;53641;44.274;19.890;2023-10-08T11:10:59;7.93;;;2.38;;
66727;SDS011;53641;44.274;19.890;2023-10-08T11:13:30;5.78;;;1.83;;
66727;SDS011;53641;44.274;19.890;2023-10-08T11:16:04;6.20;;;1.77;;
66727;SDS011;53641;44.274;19.890;2023-10-08T11:18:32;5.28;;;2.10;;
66727;SDS011;53641;44.274;19.890;2023-10-08T11:21:05;4.82;;;1.50;;
66727;SDS011;53641;44.274;19.890;2023-10-08T11:23:42;4.63;;;1.83;;
66727;SDS011;53641;44.274;19.890;2023-10-08T11:26:11;2.90;;;1.30;;
66727;SDS011;53641;44.274;19.890;2023-10-08T11:28:40;3.92;;;1.48;;
66727;SDS011;53641;44.274;19.890;2023-10-08T11:31:07;2.88;;;1.20;;
66727;SDS011;53641;44.274;19.890;2023-10-08T11:33:36;4.22;;;1.17;;
66727;SDS011;53641;44.274;19.890;2023-10-08T11:36:04;4.20;;;1.63;;
66727;SDS011;53641;44.274;19.890;2023-10-08T11:38:39;2.85;;;1.33;;
66727;SDS011;53641;44.274;19.890;2023-10-08T11:41:09;4.10;;;1.27;;
66727;SDS011;53641;44.274;19.890;2023-10-08T11:43:38;5.05;;;1.50;;
66727;SDS011;53641;44.274;19.890;2023-10-08T11:46:04;4.15;;;1.25;;
66727;SDS011;53641;44.274;19.890;2023-10-08T11:48:30;3.55;;;1.38;;
66727;SDS011;53641;44.274;19.890;2023-10-08T11:51:03;3.78;;;1.98;;
66727;SDS011;53641;44.274;19.890;2023-10-08T11:53:37;5.32;;;1.50;;
66727;SDS011;53641;44.274;19.890;2023-10-08T11:56:03;3.10;;;1.27;;
66727;SDS011;53641;44.274;19.890;2023-10-08T11:58:38;4.28;;;1.23;;
66727;SDS011;53641;44.274;19.890;2023-10-08T12:01:04;8.30;;;1.65;;
66727;SDS011;53641;44.274;19.890;2023-10-08T12:03:29;5.78;;;1.45;;
66727;SDS011;53641;44.274;19.890;2023-10-08T12:05:57;4.95;;;1.40;;
66727;SDS011;53641;44.274;19.890;2023-10-08T12:08:24;2.38;;;1.15;;
66727;SDS011;53641;44.274;19.890;2023-10-08T12:10:52;6.10;;;1.70;;
66727;SDS011;53641;44.274;19.890;2023-10-08T12:13:19;4.80;;;1.30;;
66727;SDS011;53641;44.274;19.890;2023-10-08T12:15:54;4.38;;;1.42;;
66727;SDS011;53641;44.274;19.890;2023-10-08T12:18:37;3.17;;;1.33;;
66727;SDS011;53641;44.274;19.890;2023-10-08T12:21:08;5.60;;;1.83;;
66727;SDS011;53641;44.274;19.890;2023-10-08T12:23:40;3.67;;;1.73;;
66727;SDS011;53641;44.274;19.890;2023-10-08T12:26:08;10.55;;;1.60;;
66727;SDS011;53641;44.274;19.890;2023-10-08T12:28:34;4.10;;;1.50;;
66727;SDS011;53641;44.274;19.890;2023-10-08T12:31:01;5.50;;;1.63;;
66727;SDS011;53641;44.274;19.890;2023-10-08T12:33:29;4.03;;;1.30;;
66727;SDS011;53641;44.274;19.890;2023-10-08T12:35:56;7.38;;;1.48;;
66727;SDS011;53641;44.274;19.890;2023-10-08T12:38:23;4.68;;;1.60;;
66727;SDS011;53641;44.274;19.890;2023-10-08T12:40:49;6.38;;;1.60;;
66727;SDS011;53641;44.274;19.890;2023-10-08T12:43:18;7.10;;;1.38;;
66727;SDS011;53641;44.274;19.890;2023-10-08T12:45:45;4.35;;;1.48;;
66727;SDS011;53641;44.274;19.890;2023-10-08T12:48:17;5.80;;;1.90;;
66727;SDS011;53641;44.274;19.890;2023-10-08T12:50:47;7.10;;;1.40;;
66727;SDS011;53641;44.274;19.890;2023-10-08T12:53:18;8.98;;;1.58;;
66727;SDS011;53641;44.274;19.890;2023-10-08T12:55:49;4.30;;;2.00;;
66727;SDS011;53641;44.274;19.890;2023-10-08T12:58:18;6.50;;;1.73;;
66727;SDS011;53641;44.274;19.890;2023-10-08T13:00:44;5.50;;;2.63;;
66727;SDS011;53641;44.274;19.890;2023-10-08T13:03:14;9.30;;;4.47;;
66727;SDS011;53641;44.274;19.890;2023-10-08T13:05:48;8.30;;;3.20;;
66727;SDS011;53641;44.274;19.890;2023-10-08T13:08:17;7.55;;;2.80;;
66727;SDS011;53641;44.274;19.890;2023-10-08T13:10:43;6.18;;;2.25;;
66727;SDS011;53641;44.274;19.890;2023-10-08T13:13:12;3.83;;;1.83;;
66727;SDS011;53641;44.274;19.890;2023-10-08T13:15:41;6.35;;;2.08;;
66727;SDS011;53641;44.274;19.890;2023-10-08T13:18:07;7.65;;;1.70;;
66727;SDS011;53641;44.274;19.890;2023-10-08T13:20:33;5.95;;;2.13;;
66727;SDS011;53641;44.274;19.890;2023-10-08T13:23:00;9.93;;;1.70;;
66727;SDS011;53641;44.274;19.890;2023-10-08T13:25:26;6.15;;;1.70;;
66727;SDS011;53641;44.274;19.890;2023-10-08T13:27:52;10.00;;;2.53;;
66727;SDS011;53641;44.274;19.890;2023-10-08T13:30:17;6.18;;;2.38;;
66727;SDS011;53641;44.274;19.890;2023-10-08T13:32:44;6.78;;;2.05;;
66727;SDS011;53641;44.274;19.890;2023-10-08T13:35:10;7.15;;;2.03;;
66727;SDS011;53641;44.274;19.890;2023-10-08T13:37:36;8.50;;;2.38;;
66727;SDS011;53641;44.274;19.890;2023-10-08T13:40:02;9.05;;;2.00;;
66727;SDS011;53641;44.274;19.890;2023-10-08T13:42:28;8.43;;;2.03;;
66727;SDS011;53641;44.274;19.890;2023-10-08T13:44:55;4.85;;;2.00;;
66727;SDS011;53641;44.274;19.890;2023-10-08T13:47:23;7.43;;;2.22;;
66727;SDS011;53641;44.274;19.890;2023-10-08T13:49:51;13.40;;;2.22;;
66727;SDS011;53641;44.274;19.890;2023-10-08T13:52:18;7.78;;;2.25;;
66727;SDS011;53641;44.274;19.890;2023-10-08T13:54:45;5.47;;;2.20;;
66727;SDS011;53641;44.274;19.890;2023-10-08T13:57:17;6.70;;;1.65;;
66727;SDS011;53641;44.274;19.890;2023-10-08T13:59:45;4.32;;;1.85;;
66727;SDS011;53641;44.274;19.890;2023-10-08T14:02:11;5.00;;;1.90;;
66727;SDS011;53641;44.274;19.890;2023-10-08T14:04:43;6.70;;;2.25;;
66727;SDS011;53641;44.274;19.890;2023-10-08T14:07:10;5.03;;;1.57;;
66727;SDS011;53641;44.274;19.890;2023-10-08T14:09:43;8.38;;;2.22;;
66727;SDS011;53641;44.274;19.890;2023-10-08T14:12:10;4.47;;;1.58;;
66727;SDS011;53641;44.274;19.890;2023-10-08T14:14:38;7.03;;;1.73;;
66727;SDS011;53641;44.274;19.890;2023-10-08T14:17:11;4.75;;;1.83;;
66727;SDS011;53641;44.274;19.890;2023-10-08T14:19:41;4.82;;;1.92;;
66727;SDS011;53641;44.274;19.890;2023-10-08T14:22:24;4.88;;;1.80;;
66727;SDS011;53641;44.274;19.890;2023-10-08T14:24:50;4.53;;;1.63;;
66727;SDS011;53641;44.274;19.890;2023-10-08T14:27:26;7.85;;;1.80;;
66727;SDS011;53641;44.274;19.890;2023-10-08T14:29:58;5.15;;;1.75;;
66727;SDS011;53641;44.274;19.890;2023-10-08T14:32:29;3.25;;;1.42;;
66727;SDS011;53641;44.274;19.890;2023-10-08T14:34:57;7.20;;;2.28;;
66727;SDS011;53641;44.274;19.890;2023-10-08T14:37:43;8.20;;;2.00;;
66727;SDS011;53641;44.274;19.890;2023-10-08T14:40:29;4.70;;;1.90;;
66727;SDS011;53641;44.274;19.890;2023-10-08T14:43:15;7.28;;;1.70;;
66727;SDS011;53641;44.274;19.890;2023-10-08T14:45:45;5.60;;;1.80;;
66727;SDS011;53641;44.274;19.890;2023-10-08T14:48:12;5.13;;;2.00;;
66727;SDS011;53641;44.274;19.890;2023-10-08T14:50:38;3.50;;;1.70;;
66727;SDS011;53641;44.274;19.890;2023-10-08T14:53:05;8.13;;;1.85;;
66727;SDS011;53641;44.274;19.890;2023-10-08T14:55:32;7.80;;;2.20;;
66727;SDS011;53641;44.274;19.890;2023-10-08T14:58:01;6.30;;;2.13;;
66727;SDS011;53641;44.274;19.890;2023-10-08T15:00:32;5.00;;;2.20;;
66727;SDS011;53641;44.274;19.890;2023-10-08T15:03:01;6.93;;;2.50;;